RKSS/GMP METAR and TAF weather

Enter ICAO airport designator
Station Type Date Time Source
RKSS METAR 2019/12/07 00:00 UTC NOAA

RKSS 070000Z 15006KT 9999 BKN035 M01/M08 Q1030 NOSIG


Station Type Date Time Source
RKSS Decoded METAR 2019/12/07 00:00 UTC NOAA

Seoul / Kimp'O International Airport, Korea, South (RKSS) 37-33N 126-48E 18M
Dec 06, 2019 - 07:00 PM EST / 2019.12.07 0000 UTC
Wind: from the SSE (150 degrees) at 7 MPH (6 KT):0
Visibility: greater than 7 mile(s):0
Sky conditions: mostly cloudy
Temperature: 30 F (-1 C)
Windchill: 23 F (-5 C):1
Dew Point: 17 F (-8 C)
Relative Humidity: 58%
Pressure (altimeter): 30.42 in. Hg (1030 hPa)
ob: RKSS 070000Z 15006KT 9999 BKN035 M01/M08 Q1030 NOSIG
cycle: 0

Station Type Date Time Source
RKSS TAF 2019/12/06 23:40 UTC NOAA

TAF
AMD RKSS 062240Z 0623/0724 15007KT 9999 FEW010 BKN025 TX07/0705Z TNM07/0721Z
TEMPO 0700/0703 4200 -SNRA
BECMG 0704/0705 33007KT CAVOK
BECMG 0715/0716 06005KT

Example: see airport list